Bookmark and Share
Track history (hours):
 

African Azalea

Last reported at 2012-Sep-21 16:26 UTC. Time now 2014-Apr-18 20:53 UTC.
Position N 38°11' E 024°54'.
Warning: this ship's position is years out of date!

Length 135 m; draft 4.6 m.

Type: Ship. MMSI: 636006270.

NotesDate/timePositionNaut miles runAvg speedWind from/ knotsBaromVisibWave heightAir tempDewpointWater temp
2012-Sep-21 16:26N 38°11' E 024°54'3010.3
2012-Sep-21 13:33N 37°47' E 024°33'10 9.9
2012-Sep-21 12:33N 37°38' E 024°28'1110.9
2012-Sep-21 11:33N 37°29' E 024°20'1110.9
2012-Sep-21 10:35N 37°19' E 024°14'2110.6
2012-Sep-21 08:34N 36°59' E 024°05'1010.4
2012-Sep-21 07:33N 36°49' E 024°00'1010.0
2012-Sep-21 06:33N 36°41' E 023°53'1111.1
2012-Sep-21 05:33N 36°33' E 023°44'1212.0
2012-Sep-21 04:36N 36°25' E 023°34'2411.8
2012-Sep-21 02:33N 36°07' E 023°14'  
2012-Sep-18 15:33N 37°41' E 009°05'1211.6
2012-Sep-18 14:33N 37°43' E 008°51'1111.5
2012-Sep-18 13:33N 37°45' E 008°36'1111.4
2012-Sep-18 12:33N 37°47' E 008°22'2211.2
2012-Sep-18 10:36N 37°50' E 007°54'2210.9
2012-Sep-18 08:33N 37°50' E 007°26'1311.3
2012-Sep-18 07:23N 37°50' E 007°09'1011.4
2012-Sep-18 06:33N 37°50' E 006°57'9311.6
2012-Sep-17 22:32N 37°50' E 004°59'5711.4
2012-Sep-17 17:33N 37°36' E 003°50'1110.8
2012-Sep-17 16:33N 37°33' E 003°37'52811.7
2012-Sep-15 19:26N 34°51' W 006°45'1011.3
2012-Sep-15 18:33N 34°43' W 006°52'76 5.1
2012-Sep-15 03:32N 33°36' W 007°37'0 0.0
2012-Sep-15 02:29N 33°36' W 007°37'  

Dump ship's entire track history

sailing weather and tide predictions

African Azalea — D5FQ — position and weather